createdAt,value
2022-10-12T00:00:37.304Z,102234.91
2022-10-12T00:05:40.244Z,102241.06
2022-10-12T00:10:43.408Z,102241.59
2022-10-12T00:15:47.423Z,102236.28
2022-10-12T00:20:50.027Z,102241.56
2022-10-12T00:25:52.543Z,102243.31
2022-10-12T00:30:56.421Z,102241.00
2022-10-12T00:36:00.685Z,102239.66
2022-10-12T00:41:03.213Z,102237.47
2022-10-12T00:46:14.531Z,102245.06
2022-10-12T00:51:18.127Z,102238.88
2022-10-12T00:56:25.285Z,102232.09
2022-10-12T01:01:30.766Z,102240.91
2022-10-12T01:06:34.219Z,102231.25
2022-10-12T01:11:36.881Z,102233.41
2022-10-12T01:16:47.643Z,102229.19
2022-10-12T01:21:57.020Z,102224.03
2022-10-12T01:27:39.597Z,102220.66
2022-10-12T01:33:20.329Z,102221.44
2022-10-12T01:38:33.281Z,102209.16
2022-10-12T01:43:37.256Z,102206.28
2022-10-12T01:48:43.495Z,102217.75
2022-10-12T01:53:55.260Z,102212.28
2022-10-12T01:59:07.287Z,102203.06
2022-10-12T02:04:19.787Z,102209.03
2022-10-12T02:09:27.572Z,102210.72
2022-10-12T02:14:35.756Z,102203.63
2022-10-12T02:19:43.627Z,102203.88
2022-10-12T02:24:50.082Z,102197.44
2022-10-12T02:29:52.996Z,102190.84
2022-10-12T02:35:04.569Z,102184.75
2022-10-12T02:40:13.783Z,102181.63
2022-10-12T02:45:19.249Z,102125.28
2022-10-12T02:50:25.545Z,102156.06
2022-10-12T02:55:28.143Z,102161.34
2022-10-12T03:00:33.046Z,102143.16
2022-10-12T03:05:36.926Z,102160.66
2022-10-12T03:10:39.458Z,102159.22
2022-10-12T03:15:42.004Z,102150.53
2022-10-12T03:20:49.926Z,102151.47
2022-10-12T03:25:52.696Z,102150.75
2022-10-12T03:30:55.485Z,102155.84
2022-10-12T03:35:59.685Z,102160.34
2022-10-12T03:41:06.572Z,102153.53
2022-10-12T03:46:09.467Z,102144.00
2022-10-12T03:51:13.339Z,102147.38
2022-10-12T03:56:16.437Z,102142.81
2022-10-12T04:01:19.214Z,102137.91
2022-10-12T04:06:23.249Z,102131.69
2022-10-12T04:11:25.806Z,102132.75
2022-10-12T04:16:31.050Z,102138.75
2022-10-12T04:21:35.604Z,102145.34
2022-10-12T04:26:38.178Z,102142.63
2022-10-12T04:31:40.858Z,102131.84
2022-10-12T04:36:44.819Z,102132.25
2022-10-12T04:41:47.390Z,102125.44
2022-10-12T04:46:50.498Z,102127.91
2022-10-12T04:51:54.402Z,102126.19
2022-10-12T04:56:56.914Z,102126.31
2022-10-12T05:01:59.491Z,102130.97
2022-10-12T05:07:03.423Z,102133.13
2022-10-12T05:12:06.717Z,102133.88
2022-10-12T05:17:09.513Z,102118.31
2022-10-12T05:22:13.636Z,102119.66
2022-10-12T05:27:16.160Z,102116.84
2022-10-12T05:32:18.717Z,102115.91
2022-10-12T05:37:22.936Z,102116.13
2022-10-12T05:42:25.635Z,102135.81
2022-10-12T05:47:28.544Z,102132.53
2022-10-12T05:52:32.463Z,102147.53
2022-10-12T05:57:34.994Z,102146.72
2022-10-12T06:02:37.953Z,102141.53
2022-10-12T06:07:41.978Z,102133.47
2022-10-12T06:12:44.516Z,102140.09
2022-10-12T06:17:47.068Z,102138.31
2022-10-12T06:22:50.920Z,102137.31
2022-10-12T06:27:53.468Z,102145.94
2022-10-12T06:32:56.080Z,102142.06
2022-10-12T06:38:00.077Z,102140.41
2022-10-12T06:43:02.808Z,102146.44
2022-10-12T06:48:06.314Z,102122.50
2022-10-12T06:53:10.259Z,102144.00
2022-10-12T06:58:12.817Z,102146.88
2022-10-12T07:03:16.476Z,102131.84
2022-10-12T07:08:20.381Z,102141.13
2022-10-12T07:13:22.924Z,102098.47
2022-10-12T07:18:25.724Z,102120.41
2022-10-12T07:23:30.793Z,102124.03
2022-10-12T07:28:35.191Z,102129.41
2022-10-12T07:33:39.426Z,102126.03
2022-10-12T07:38:45.200Z,102123.72
2022-10-12T07:43:47.959Z,102118.03
2022-10-12T07:48:50.954Z,102130.66
2022-10-12T07:53:54.905Z,102133.03
2022-10-12T07:58:58.733Z,102130.31
2022-10-12T08:04:02.242Z,102099.13
2022-10-12T08:09:08.906Z,102132.56
2022-10-12T08:14:15.690Z,102139.06
2022-10-12T08:19:18.188Z,102134.66
2022-10-12T08:24:22.347Z,102107.00
2022-10-12T08:29:25.605Z,102122.47
2022-10-12T08:34:28.854Z,102088.78
2022-10-12T08:39:32.734Z,102119.00
2022-10-12T08:44:46.199Z,102111.31
2022-10-12T08:49:51.454Z,102114.59
2022-10-12T08:55:00.636Z,102108.78
2022-10-12T09:00:04.207Z,102110.75
2022-10-12T09:05:10.624Z,102115.50
2022-10-12T09:10:29.977Z,102112.63
2022-10-12T09:15:36.094Z,102126.53
2022-10-12T09:20:46.854Z,102126.22
2022-10-12T09:25:51.180Z,102123.34
2022-10-12T09:31:06.892Z,102137.94
2022-10-12T09:36:13.450Z,102133.34
2022-10-12T09:41:22.059Z,102121.50
2022-10-12T09:46:37.138Z,102124.25
2022-10-12T09:51:40.118Z,102121.88
2022-10-12T09:56:49.763Z,102112.16
2022-10-12T10:02:00.505Z,102107.66
2022-10-12T10:07:27.318Z,102111.00
2022-10-12T10:12:31.610Z,102114.22
2022-10-12T10:17:34.621Z,102107.03
2022-10-12T10:22:37.192Z,102103.66
2022-10-12T10:27:41.100Z,102101.41
2022-10-12T10:32:44.525Z,102107.94
2022-10-12T10:37:50.320Z,102101.59
2022-10-12T10:42:56.327Z,102110.16
2022-10-12T10:48:02.047Z,102105.19
2022-10-12T10:53:08.078Z,102066.44
2022-10-12T10:58:20.778Z,102103.16
2022-10-12T11:03:28.993Z,102097.50
2022-10-12T11:08:36.645Z,102079.47
2022-10-12T11:13:46.246Z,102078.78
2022-10-12T11:18:54.022Z,102069.34
2022-10-12T11:24:05.983Z,102070.41
2022-10-12T11:29:14.094Z,102068.34
2022-10-12T11:34:18.761Z,102059.56
2022-10-12T11:39:30.321Z,102047.66
2022-10-12T11:44:41.987Z,102052.47
2022-10-12T11:49:51.652Z,102046.66
2022-10-12T11:55:01.453Z,102040.09
2022-10-12T12:00:08.475Z,101940.41
2022-10-12T12:05:17.812Z,102043.25
2022-10-12T12:10:52.836Z,102040.88
2022-10-12T12:16:32.588Z,102027.84
2022-10-12T12:22:18.038Z,102018.88
2022-10-12T12:27:31.452Z,101997.72
2022-10-12T12:32:46.953Z,102002.75
2022-10-12T12:38:02.596Z,101996.03
2022-10-12T12:43:35.936Z,101976.03
2022-10-12T12:49:01.303Z,101979.44
2022-10-12T12:54:08.356Z,101939.09
2022-10-12T12:59:37.839Z,101946.22
2022-10-12T13:05:01.617Z,101965.56
2022-10-12T13:10:31.047Z,101975.09
2022-10-12T13:16:00.806Z,101961.34
2022-10-12T13:21:07.696Z,101948.00
2022-10-12T13:26:15.368Z,101943.72
2022-10-12T13:31:23.995Z,101927.56
2022-10-12T13:36:29.492Z,101920.84
2022-10-12T13:41:34.151Z,101924.25
2022-10-12T13:46:41.613Z,101922.75
2022-10-12T13:51:45.826Z,101918.28
2022-10-12T13:56:54.909Z,101910.78
2022-10-12T14:02:00.743Z,101916.78
2022-10-12T14:07:06.524Z,101917.00
2022-10-12T14:12:12.545Z,101887.53
2022-10-12T14:17:16.497Z,101913.78
2022-10-12T14:22:25.848Z,101901.16
2022-10-12T14:27:30.032Z,101904.78
2022-10-12T14:32:42.077Z,101896.69
2022-10-12T14:37:44.630Z,101886.56
2022-10-12T14:42:59.710Z,101891.03
2022-10-12T14:48:03.167Z,101883.34
2022-10-12T14:53:10.797Z,101885.91
2022-10-12T14:58:17.497Z,101887.94
2022-10-12T15:03:20.231Z,101879.06
2022-10-12T15:08:22.783Z,101879.63
2022-10-12T15:13:26.861Z,101885.34
2022-10-12T15:18:29.824Z,101873.91
2022-10-12T15:23:32.357Z,101860.81
2022-10-12T15:28:36.277Z,101857.38
2022-10-12T15:33:39.173Z,101839.88
2022-10-12T15:38:41.863Z,101837.31
2022-10-12T15:43:46.228Z,101842.91
2022-10-12T15:48:49.215Z,101837.22
2022-10-12T15:53:52.399Z,101827.22
2022-10-12T15:58:56.323Z,101815.03
2022-10-12T16:03:58.888Z,101820.97
2022-10-12T16:15:51.637Z,101808.03
2022-10-12T16:20:55.630Z,101814.91
2022-10-12T16:26:00.316Z,101805.72
2022-10-12T16:31:10.788Z,101809.53
2022-10-12T16:36:17.380Z,101812.13
2022-10-12T16:41:21.391Z,101809.00
2022-10-12T16:46:25.405Z,101804.66
2022-10-12T16:51:28.168Z,101809.66
2022-10-12T16:56:30.841Z,101824.13
2022-10-12T17:01:34.819Z,101831.84
2022-10-12T17:12:58.866Z,101847.59
2022-10-12T17:18:02.887Z,101823.19
2022-10-12T17:23:05.600Z,101846.06
2022-10-12T17:28:08.175Z,101851.19
2022-10-12T17:33:12.071Z,101858.56
2022-10-12T17:38:14.785Z,101852.09
2022-10-12T17:43:17.669Z,101852.16
2022-10-12T17:48:22.651Z,101847.81
2022-10-12T17:53:25.823Z,101833.19
2022-10-12T17:58:28.548Z,101846.16
2022-10-12T18:03:32.539Z,101847.22
2022-10-12T18:08:35.139Z,101782.19
2022-10-12T18:13:38.668Z,101852.16
2022-10-12T18:18:42.740Z,101850.50
2022-10-12T18:23:45.390Z,101843.63
2022-10-12T18:28:48.729Z,101848.72
2022-10-12T18:33:53.721Z,101831.78
2022-10-12T18:38:56.579Z,101820.28
2022-10-12T18:44:01.026Z,101850.94
2022-10-12T18:49:07.871Z,101846.94
2022-10-12T18:54:13.808Z,101842.00
2022-10-12T18:59:18.045Z,101842.38
2022-10-12T19:04:22.199Z,101833.66
2022-10-12T19:09:24.748Z,101836.81
2022-10-12T19:14:27.728Z,101825.41
2022-10-12T19:19:32.136Z,101808.69
2022-10-12T19:24:35.173Z,101793.97
2022-10-12T19:29:40.287Z,101798.22
2022-10-12T19:34:46.278Z,101801.31
2022-10-12T19:39:49.125Z,101796.13
2022-10-12T19:44:51.732Z,101800.44
2022-10-12T19:49:56.036Z,101791.78
2022-10-12T19:54:58.594Z,101782.22
2022-10-12T20:00:01.332Z,101781.75
2022-10-12T20:05:15.632Z,101707.59
2022-10-12T20:10:18.396Z,101794.53
2022-10-12T20:15:20.931Z,101794.06
2022-10-12T20:20:24.933Z,101792.16
2022-10-12T20:25:27.540Z,101804.03
2022-10-12T20:30:30.147Z,101797.28
2022-10-12T20:35:34.190Z,101795.00
2022-10-12T20:40:36.766Z,101791.44
2022-10-12T20:45:39.335Z,101800.06
2022-10-12T20:50:43.233Z,101782.09
2022-10-12T20:55:45.784Z,101790.25
2022-10-12T21:00:48.433Z,101777.56
2022-10-12T21:05:52.373Z,101790.88
2022-10-12T21:10:54.940Z,101796.19
2022-10-12T21:15:57.747Z,101791.97
2022-10-12T21:21:05.046Z,101782.47
2022-10-12T21:26:12.222Z,101787.22
2022-10-12T21:31:15.797Z,101785.72
2022-10-12T21:36:21.899Z,101782.53
2022-10-12T21:41:25.877Z,101779.50
2022-10-12T21:46:30.767Z,101785.50
2022-10-12T21:51:38.794Z,101773.50
2022-10-12T21:56:41.588Z,101771.16
2022-10-12T22:01:44.113Z,101775.22
2022-10-12T22:06:48.125Z,101763.91
2022-10-12T22:11:50.781Z,101661.31
2022-10-12T22:16:53.386Z,101759.78
2022-10-12T22:21:57.263Z,101768.66
2022-10-12T22:27:03.258Z,101764.25
2022-10-12T22:32:06.404Z,101759.84
2022-10-12T22:37:10.317Z,101767.78
2022-10-12T22:42:13.004Z,101767.41
2022-10-12T22:47:15.527Z,101754.66
2022-10-12T22:52:19.656Z,101755.22
2022-10-12T22:57:22.552Z,101742.59
2022-10-12T23:02:25.064Z,101739.03
2022-10-12T23:07:29.354Z,101740.91
2022-10-12T23:12:32.200Z,101739.25
2022-10-12T23:17:34.955Z,101706.72
2022-10-12T23:22:38.846Z,101727.09
2022-10-12T23:27:41.419Z,101725.47
2022-10-12T23:32:43.991Z,101737.19
2022-10-12T23:37:47.860Z,101736.19
2022-10-12T23:42:50.402Z,101740.47
2022-10-12T23:47:52.976Z,101728.94
2022-10-12T23:52:56.881Z,101725.94
2022-10-12T23:57:59.492Z,101720.66
